Nemencine, Lithuania
Current Conditions -  °F | °C
As of 3:20 AM on Wednesday 26 Nov 2014 (Local Time) from EYVI Reporting Station
Haze Haze  
Wind Chill: 17°   Ceiling: 100
Heat Index: 27°   Visibility: 0.68mi
Dew Point: 27°   Wind: 9mph
Humidity: 100%   Direction: 160°SSE
Pressure: 30.39"   Gusts: NA
Location:  54.85°N, 25.48°E
Report Text: EYVI 260020Z 16008KT 1100 R20/P1500N BR OVC001 M03/M03 Q1029 R20/1///95 NOSIG
Loading
Personal Weather Stations






























Interactive Weather Map New forecast layout! Learn more

10-Day Weather Forecast

Advertisements
Track Severe Weather on mobile